Flight Track Log - Related Links

Times and Time Zones

All times are in EDT time to prevent confusion due to time zone crossing. See the KAL839 flight status page for this flight to view local times or setup timezone preferences in your user account.

Time Position Orientation Groundspeed Altitude Reporting Facility
EDT Latitude Longitude Course Direction KTS MPH feet Rate Location/Type
Sun 01:30:00 AM 37.4434 125.9464 266° West  Level Estimated
Sun 01:31:00 AM 37.4380 125.8456 266° West  Level Estimated
Sun 01:32:00 AM 37.4325 125.7448 266° West  Level Estimated
Sun 01:33:00 AM 37.4270 125.6440 266° West  Level Estimated
Sun 01:34:00 AM 37.4213 125.5433 266° West  Level Estimated
Sun 01:35:00 AM 37.4156 125.4426 266° West  Level Estimated
Sun 01:36:00 AM 37.4098 125.3419 266° West  Level Estimated
Sun 01:37:00 AM 37.4038 125.2412 266° West  Level Estimated
Sun 01:38:00 AM 37.3979 125.1405 266° West  Level Estimated
Sun 01:39:00 AM 37.3918 125.0398 266° West  Level Estimated
Sun 01:40:00 AM 37.3856 124.9392 266° West  Level Estimated
Sun 01:41:00 AM 37.3794 124.8385 266° West  Level Estimated
Sun 01:42:00 AM 37.3730 124.7379 266° West  Level Estimated
Sun 01:43:00 AM 37.3666 124.6373 265° West  Level Estimated
Sun 01:44:00 AM 37.3601 124.5368 265° West  Level Estimated
Sun 01:45:00 AM 37.3535 124.4362 265° West  Level Estimated
Sun 01:46:00 AM 37.3469 124.3356 265° West  Level Estimated
Sun 01:47:00 AM 37.3401 124.2351 265° West  Level Estimated
Sun 01:48:00 AM 37.3332 124.1346 265° West  Level Estimated
Sun 01:49:00 AM 37.3263 124.0341 265° West  Level Estimated
Sun 01:50:00 AM 37.3193 123.9336 265° West  Level Estimated
Sun 01:51:00 AM 37.3122 123.8332 265° West  Level Estimated
Sun 01:52:00 AM 37.3050 123.7328 265° West  Level Estimated
Sun 01:53:00 AM 37.2978 123.6323 265° West  Level Estimated
Sun 01:54:00 AM 37.2904 123.5320 265° West  Level Estimated
Sun 01:55:00 AM 37.2830 123.4316 265° West  Level Estimated
Sun 01:56:00 AM 37.2755 123.3312 265° West  Level Estimated
Sun 01:57:00 AM 37.2678 123.2309 265° West  Level Estimated
Sun 01:58:00 AM 37.2602 123.1306 265° West  Level Estimated
Sun 01:59:00 AM 37.2540 123.0511 264° West  Level Estimated
Sun 02:00:00 AM 37.2478 122.9716 264° West  Level Estimated
Sun 02:01:00 AM 37.2415 122.8922 264° West  Level Estimated
Sun 02:02:00 AM 37.2352 122.8127 264° West  Level Estimated
Sun 02:03:00 AM 37.2288 122.7333 264° West  Level Estimated
Sun 02:04:00 AM 37.2224 122.6539 264° West  Level Estimated
Sun 02:05:00 AM 37.2160 122.5745 264° West  Level Estimated
Sun 02:06:00 AM 37.2094 122.4951 264° West  Level Estimated
Sun 02:07:00 AM 37.2028 122.4157 264° West  Level Estimated
Sun 02:08:00 AM 37.1962 122.3364 264° West  Level Estimated
Sun 02:09:00 AM 37.1895 122.2570 264° West  Level Estimated
Sun 02:10:00 AM 37.1871 122.2289 264° West  Level Estimated
Sun 02:11:00 AM 37.1871 122.2289 310° West  Level Estimated
Sun 02:12:00 AM 37.1871 122.2289 310° West  Level Estimated
Sun 02:13:00 AM 37.1871 122.2289 310° West  Level Estimated
Sun 02:14:00 AM 37.1871 122.2289 310° West  Level Estimated
Sun 02:15:00 AM 37.1871 122.2289 310° West  Level Estimated
Sun 02:16:00 AM 37.1871 122.2289 310° West  Level Estimated
Sun 02:17:00 AM 37.1871 122.2289 310° West  Level Estimated
Sun 02:18:00 AM 37.1871 122.2289 310° West  Level Estimated
Sun 02:19:00 AM 37.1871 122.2289 310° West  Level Estimated

Login

Don't have an account? Register now (free) for customized features, flight alerts, and more!